sensor_id;sensor_type;location;lat;lon;timestamp;temperature;humidity
32506;DHT22;18955;51.224;8.482;2024-03-08T00:01:31;7.70;69.50
32506;DHT22;18955;51.224;8.482;2024-03-08T00:03:58;7.50;69.90
32506;DHT22;18955;51.224;8.482;2024-03-08T00:06:24;7.30;70.80
32506;DHT22;18955;51.224;8.482;2024-03-08T00:08:50;7.40;70.70
32506;DHT22;18955;51.224;8.482;2024-03-08T00:11:17;7.70;69.40
32506;DHT22;18955;51.224;8.482;2024-03-08T00:13:43;7.50;69.80
32506;DHT22;18955;51.224;8.482;2024-03-08T00:16:10;7.20;70.70
32506;DHT22;18955;51.224;8.482;2024-03-08T00:18:37;7.30;70.70
32506;DHT22;18955;51.224;8.482;2024-03-08T00:21:03;7.60;69.40
32506;DHT22;18955;51.224;8.482;2024-03-08T00:23:30;7.50;69.80
32506;DHT22;18955;51.224;8.482;2024-03-08T00:25:57;7.20;70.50
32506;DHT22;18955;51.224;8.482;2024-03-08T00:28:24;7.30;70.50
32506;DHT22;18955;51.224;8.482;2024-03-08T00:30:51;7.60;69.20
32506;DHT22;18955;51.224;8.482;2024-03-08T00:33:17;7.40;70.00
32506;DHT22;18955;51.224;8.482;2024-03-08T00:35:43;7.20;70.50
32506;DHT22;18955;51.224;8.482;2024-03-08T00:38:09;7.30;70.50
32506;DHT22;18955;51.224;8.482;2024-03-08T00:40:35;7.50;69.20
32506;DHT22;18955;51.224;8.482;2024-03-08T00:43:02;7.40;69.50
32506;DHT22;18955;51.224;8.482;2024-03-08T00:45:29;7.10;70.40
32506;DHT22;18955;51.224;8.482;2024-03-08T00:47:56;7.20;70.40
32506;DHT22;18955;51.224;8.482;2024-03-08T00:50:22;7.50;69.30
32506;DHT22;18955;51.224;8.482;2024-03-08T00:52:48;7.30;69.60
32506;DHT22;18955;51.224;8.482;2024-03-08T00:55:14;7.10;70.30
32506;DHT22;18955;51.224;8.482;2024-03-08T00:57:41;7.20;70.70
32506;DHT22;18955;51.224;8.482;2024-03-08T01:00:07;7.40;69.20
32506;DHT22;18955;51.224;8.482;2024-03-08T01:02:40;7.30;69.60
32506;DHT22;18955;51.224;8.482;2024-03-08T01:05:07;7.00;70.20
32506;DHT22;18955;51.224;8.482;2024-03-08T01:07:34;7.30;69.80
32506;DHT22;18955;51.224;8.482;2024-03-08T01:10:05;7.40;69.10
32506;DHT22;18955;51.224;8.482;2024-03-08T01:12:35;7.20;69.60
32506;DHT22;18955;51.224;8.482;2024-03-08T01:15:01;7.00;70.30
32506;DHT22;18955;51.224;8.482;2024-03-08T01:17:28;7.30;69.50
32506;DHT22;18955;51.224;8.482;2024-03-08T01:19:54;7.30;69.10
32506;DHT22;18955;51.224;8.482;2024-03-08T01:22:20;7.10;69.70
32506;DHT22;18955;51.224;8.482;2024-03-08T01:24:46;6.90;70.20
32506;DHT22;18955;51.224;8.482;2024-03-08T01:27:12;7.40;69.10
32506;DHT22;18955;51.224;8.482;2024-03-08T01:29:39;7.30;69.00
32506;DHT22;18955;51.224;8.482;2024-03-08T01:32:05;7.00;69.50
32506;DHT22;18955;51.224;8.482;2024-03-08T01:34:32;6.90;70.00
32506;DHT22;18955;51.224;8.482;2024-03-08T01:36:58;7.30;68.80
32506;DHT22;18955;51.224;8.482;2024-03-08T01:39:25;7.20;68.90
32506;DHT22;18955;51.224;8.482;2024-03-08T01:41:52;7.00;69.80
32506;DHT22;18955;51.224;8.482;2024-03-08T01:44:20;6.90;70.10
32506;DHT22;18955;51.224;8.482;2024-03-08T01:46:47;7.30;69.00
32506;DHT22;18955;51.224;8.482;2024-03-08T01:49:14;7.10;69.00
32506;DHT22;18955;51.224;8.482;2024-03-08T01:51:44;6.90;70.00
32506;DHT22;18955;51.224;8.482;2024-03-08T01:54:11;7.00;70.20
32506;DHT22;18955;51.224;8.482;2024-03-08T01:56:39;7.20;69.00
32506;DHT22;18955;51.224;8.482;2024-03-08T01:59:05;7.00;69.30
32506;DHT22;18955;51.224;8.482;2024-03-08T02:01:34;6.80;70.20
32506;DHT22;18955;51.224;8.482;2024-03-08T02:04:00;7.10;69.50
32506;DHT22;18955;51.224;8.482;2024-03-08T02:06:26;7.20;68.90
32506;DHT22;18955;51.224;8.482;2024-03-08T02:08:53;7.00;69.40
32506;DHT22;18955;51.224;8.482;2024-03-08T02:11:20;6.70;70.00
32506;DHT22;18955;51.224;8.482;2024-03-08T02:13:46;7.20;69.10
32506;DHT22;18955;51.224;8.482;2024-03-08T02:16:20;7.20;68.80
32506;DHT22;18955;51.224;8.482;2024-03-08T02:18:46;6.90;69.40
32506;DHT22;18955;51.224;8.482;2024-03-08T02:21:13;6.70;69.80
32506;DHT22;18955;51.224;8.482;2024-03-08T02:23:40;7.20;68.80
32506;DHT22;18955;51.224;8.482;2024-03-08T02:26:06;7.10;69.40
32506;DHT22;18955;51.224;8.482;2024-03-08T02:28:33;6.80;69.60
32506;DHT22;18955;51.224;8.482;2024-03-08T02:31:00;6.80;70.00
32506;DHT22;18955;51.224;8.482;2024-03-08T02:33:27;7.10;68.60
32506;DHT22;18955;51.224;8.482;2024-03-08T02:35:53;7.00;68.70
32506;DHT22;18955;51.224;8.482;2024-03-08T02:38:22;6.70;69.60
32506;DHT22;18955;51.224;8.482;2024-03-08T02:40:50;6.80;69.70
32506;DHT22;18955;51.224;8.482;2024-03-08T02:43:18;7.10;68.40
32506;DHT22;18955;51.224;8.482;2024-03-08T02:45:45;6.90;68.90
32506;DHT22;18955;51.224;8.482;2024-03-08T02:48:11;6.60;69.90
32506;DHT22;18955;51.224;8.482;2024-03-08T02:50:38;6.90;69.20
32506;DHT22;18955;51.224;8.482;2024-03-08T02:53:06;7.00;68.40
32506;DHT22;18955;51.224;8.482;2024-03-08T02:55:33;6.90;69.00
32506;DHT22;18955;51.224;8.482;2024-03-08T02:58:02;6.60;69.70
32506;DHT22;18955;51.224;8.482;2024-03-08T03:00:31;7.00;68.70
32506;DHT22;18955;51.224;8.482;2024-03-08T03:02:58;7.00;68.50
32506;DHT22;18955;51.224;8.482;2024-03-08T03:05:24;6.70;69.10
32506;DHT22;18955;51.224;8.482;2024-03-08T03:07:51;6.60;69.50
32506;DHT22;18955;51.224;8.482;2024-03-08T03:10:17;7.00;68.40
32506;DHT22;18955;51.224;8.482;2024-03-08T03:12:45;6.90;68.50
32506;DHT22;18955;51.224;8.482;2024-03-08T03:15:12;6.60;69.50
32506;DHT22;18955;51.224;8.482;2024-03-08T03:17:39;6.60;69.60
32506;DHT22;18955;51.224;8.482;2024-03-08T03:20:08;7.00;68.10
32506;DHT22;18955;51.224;8.482;2024-03-08T03:22:38;6.80;68.50
32506;DHT22;18955;51.224;8.482;2024-03-08T03:25:09;6.50;69.40
32506;DHT22;18955;51.224;8.482;2024-03-08T03:27:35;6.80;69.00
32506;DHT22;18955;51.224;8.482;2024-03-08T03:30:03;6.90;68.30
32506;DHT22;18955;51.224;8.482;2024-03-08T03:32:50;6.70;68.90
32506;DHT22;18955;51.224;8.482;2024-03-08T03:35:17;6.50;69.40
32506;DHT22;18955;51.224;8.482;2024-03-08T03:37:44;6.90;68.40
32506;DHT22;18955;51.224;8.482;2024-03-08T03:40:28;6.70;68.50
32506;DHT22;18955;51.224;8.482;2024-03-08T03:42:55;6.50;69.50
32506;DHT22;18955;51.224;8.482;2024-03-08T03:45:22;6.70;69.00
32506;DHT22;18955;51.224;8.482;2024-03-08T03:47:48;6.80;68.30
32506;DHT22;18955;51.224;8.482;2024-03-08T03:50:14;6.60;68.80
32506;DHT22;18955;51.224;8.482;2024-03-08T03:52:41;6.40;69.40
32506;DHT22;18955;51.224;8.482;2024-03-08T03:55:08;6.80;68.40
32506;DHT22;18955;51.224;8.482;2024-03-08T03:57:34;6.70;68.40
32506;DHT22;18955;51.224;8.482;2024-03-08T04:00:01;6.40;69.20
32506;DHT22;18955;51.224;8.482;2024-03-08T04:02:39;6.50;69.30
32506;DHT22;18955;51.224;8.482;2024-03-08T04:05:05;6.70;68.20
32506;DHT22;18955;51.224;8.482;2024-03-08T04:07:32;6.50;68.70
32506;DHT22;18955;51.224;8.482;2024-03-08T04:09:58;6.40;69.30
32506;DHT22;18955;51.224;8.482;2024-03-08T04:12:25;6.70;68.30
32506;DHT22;18955;51.224;8.482;2024-03-08T04:14:51;6.70;68.30
32506;DHT22;18955;51.224;8.482;2024-03-08T04:17:17;6.40;69.00
32506;DHT22;18955;51.224;8.482;2024-03-08T04:19:44;6.40;69.30
32506;DHT22;18955;51.224;8.482;2024-03-08T04:22:10;6.70;68.00
32506;DHT22;18955;51.224;8.482;2024-03-08T04:24:36;6.50;68.40
32506;DHT22;18955;51.224;8.482;2024-03-08T04:27:03;6.30;69.30
32506;DHT22;18955;51.224;8.482;2024-03-08T04:29:30;6.60;68.70
32506;DHT22;18955;51.224;8.482;2024-03-08T04:31:58;6.70;68.10
32506;DHT22;18955;51.224;8.482;2024-03-08T04:34:24;6.40;68.60
32506;DHT22;18955;51.224;8.482;2024-03-08T04:36:50;6.30;69.10
32506;DHT22;18955;51.224;8.482;2024-03-08T04:39:17;6.70;67.90
32506;DHT22;18955;51.224;8.482;2024-03-08T04:41:44;6.60;68.10
32506;DHT22;18955;51.224;8.482;2024-03-08T04:44:11;6.30;69.00
32506;DHT22;18955;51.224;8.482;2024-03-08T04:46:38;6.40;68.90
32506;DHT22;18955;51.224;8.482;2024-03-08T04:49:04;6.70;67.90
32506;DHT22;18955;51.224;8.482;2024-03-08T04:51:33;6.50;68.40
32506;DHT22;18955;51.224;8.482;2024-03-08T04:54:00;6.30;69.10
32506;DHT22;18955;51.224;8.482;2024-03-08T04:56:26;6.60;68.20
32506;DHT22;18955;51.224;8.482;2024-03-08T04:58:52;6.50;68.10
32506;DHT22;18955;51.224;8.482;2024-03-08T05:01:19;6.30;69.00
32506;DHT22;18955;51.224;8.482;2024-03-08T05:03:45;6.30;69.10
32506;DHT22;18955;51.224;8.482;2024-03-08T05:06:12;6.70;67.60
32506;DHT22;18955;51.224;8.482;2024-03-08T05:08:38;6.50;68.10
32506;DHT22;18955;51.224;8.482;2024-03-08T05:11:04;6.20;69.00
32506;DHT22;18955;51.224;8.482;2024-03-08T05:13:33;6.50;68.30
32506;DHT22;18955;51.224;8.482;2024-03-08T05:16:00;6.60;67.70
32506;DHT22;18955;51.224;8.482;2024-03-08T05:18:26;6.40;68.40
32506;DHT22;18955;51.224;8.482;2024-03-08T05:20:58;6.20;69.00
32506;DHT22;18955;51.224;8.482;2024-03-08T05:23:24;6.60;67.70
32506;DHT22;18955;51.224;8.482;2024-03-08T05:25:50;6.50;67.80
32506;DHT22;18955;51.224;8.482;2024-03-08T05:28:17;6.20;68.70
32506;DHT22;18955;51.224;8.482;2024-03-08T05:30:43;6.30;68.80
32506;DHT22;18955;51.224;8.482;2024-03-08T05:33:09;6.60;67.60
32506;DHT22;18955;51.224;8.482;2024-03-08T05:35:40;6.40;68.10
32506;DHT22;18955;51.224;8.482;2024-03-08T05:38:06;6.20;69.50
32506;DHT22;18955;51.224;8.482;2024-03-08T05:40:33;6.50;68.00
32506;DHT22;18955;51.224;8.482;2024-03-08T05:42:59;6.50;67.60
32506;DHT22;18955;51.224;8.482;2024-03-08T05:45:26;6.20;68.40
32506;DHT22;18955;51.224;8.482;2024-03-08T05:47:52;6.20;68.90
32506;DHT22;18955;51.224;8.482;2024-03-08T05:50:19;6.60;67.60
32506;DHT22;18955;51.224;8.482;2024-03-08T05:52:45;6.40;67.90
32506;DHT22;18955;51.224;8.482;2024-03-08T05:55:13;6.10;68.70
32506;DHT22;18955;51.224;8.482;2024-03-08T05:57:41;6.40;68.20
32506;DHT22;18955;51.224;8.482;2024-03-08T06:00:09;6.50;67.60
32506;DHT22;18955;51.224;8.482;2024-03-08T06:02:40;6.20;68.20
32506;DHT22;18955;51.224;8.482;2024-03-08T06:05:09;6.10;68.80
32506;DHT22;18955;51.224;8.482;2024-03-08T06:07:36;6.40;67.70
32506;DHT22;18955;51.224;8.482;2024-03-08T06:10:03;6.30;67.90
32506;DHT22;18955;51.224;8.482;2024-03-08T06:12:29;6.00;68.70
32506;DHT22;18955;51.224;8.482;2024-03-08T06:14:58;6.40;68.20
32506;DHT22;18955;51.224;8.482;2024-03-08T06:17:24;6.40;67.70
32506;DHT22;18955;51.224;8.482;2024-03-08T06:19:51;6.20;68.20
32506;DHT22;18955;51.224;8.482;2024-03-08T06:22:18;6.10;68.80
32506;DHT22;18955;51.224;8.482;2024-03-08T06:24:45;6.50;67.50
32506;DHT22;18955;51.224;8.482;2024-03-08T06:27:12;6.30;67.70
32506;DHT22;18955;51.224;8.482;2024-03-08T06:29:39;6.00;69.20
32506;DHT22;18955;51.224;8.482;2024-03-08T06:32:06;6.30;67.90
32506;DHT22;18955;51.224;8.482;2024-03-08T06:34:33;6.40;67.90
32506;DHT22;18955;51.224;8.482;2024-03-08T06:37:00;6.20;68.00
32506;DHT22;18955;51.224;8.482;2024-03-08T06:39:27;6.10;68.50
32506;DHT22;18955;51.224;8.482;2024-03-08T06:41:57;6.50;67.30
32506;DHT22;18955;51.224;8.482;2024-03-08T06:44:24;6.30;67.40
32506;DHT22;18955;51.224;8.482;2024-03-08T06:46:50;6.00;68.40
32506;DHT22;18955;51.224;8.482;2024-03-08T06:49:16;6.30;68.00
32506;DHT22;18955;51.224;8.482;2024-03-08T06:51:42;6.40;67.30
32506;DHT22;18955;51.224;8.482;2024-03-08T06:54:09;6.20;68.00
32506;DHT22;18955;51.224;8.482;2024-03-08T06:56:35;6.00;68.50
32506;DHT22;18955;51.224;8.482;2024-03-08T06:59:01;6.50;67.20
32506;DHT22;18955;51.224;8.482;2024-03-08T07:01:30;6.30;67.30
32506;DHT22;18955;51.224;8.482;2024-03-08T07:03:58;6.00;68.30
32506;DHT22;18955;51.224;8.482;2024-03-08T07:06:24;6.20;68.20
32506;DHT22;18955;51.224;8.482;2024-03-08T07:08:51;6.40;67.00
32506;DHT22;18955;51.224;8.482;2024-03-08T07:11:17;6.20;67.70
32506;DHT22;18955;51.224;8.482;2024-03-08T07:13:45;6.00;68.40
32506;DHT22;18955;51.224;8.482;2024-03-08T07:16:11;6.40;67.30
32506;DHT22;18955;51.224;8.482;2024-03-08T07:18:38;6.30;67.30
32506;DHT22;18955;51.224;8.482;2024-03-08T07:21:09;6.10;68.30
32506;DHT22;18955;51.224;8.482;2024-03-08T07:23:38;6.20;68.30
32506;DHT22;18955;51.224;8.482;2024-03-08T07:26:40;6.50;66.90
32506;DHT22;18955;51.224;8.482;2024-03-08T07:29:06;6.20;67.60
32506;DHT22;18955;51.224;8.482;2024-03-08T07:31:34;6.10;68.50
32506;DHT22;18955;51.224;8.482;2024-03-08T07:34:03;6.60;67.20
32506;DHT22;18955;51.224;8.482;2024-03-08T07:36:29;6.50;67.30
32506;DHT22;18955;51.224;8.482;2024-03-08T07:38:55;6.30;68.30
32506;DHT22;18955;51.224;8.482;2024-03-08T07:41:23;6.40;68.50
32506;DHT22;18955;51.224;8.482;2024-03-08T07:43:49;6.70;67.30
32506;DHT22;18955;51.224;8.482;2024-03-08T07:46:15;6.50;67.90
32506;DHT22;18955;51.224;8.482;2024-03-08T07:48:44;6.30;68.70
32506;DHT22;18955;51.224;8.482;2024-03-08T07:51:11;6.80;67.70
32506;DHT22;18955;51.224;8.482;2024-03-08T07:53:38;6.70;67.40
32506;DHT22;18955;51.224;8.482;2024-03-08T07:56:05;6.50;68.30
32506;DHT22;18955;51.224;8.482;2024-03-08T07:58:31;6.50;69.00
32506;DHT22;18955;51.224;8.482;2024-03-08T08:00:57;6.90;67.50
32506;DHT22;18955;51.224;8.482;2024-03-08T08:03:23;6.80;67.80
32506;DHT22;18955;51.224;8.482;2024-03-08T08:05:49;6.50;68.70
32506;DHT22;18955;51.224;8.482;2024-03-08T08:08:16;6.70;68.90
32506;DHT22;18955;51.224;8.482;2024-03-08T08:10:42;7.00;67.40
32506;DHT22;18955;51.224;8.482;2024-03-08T08:13:08;6.80;68.20
32506;DHT22;18955;51.224;8.482;2024-03-08T08:15:34;6.60;69.10
32506;DHT22;18955;51.224;8.482;2024-03-08T08:18:01;6.90;68.50
32506;DHT22;18955;51.224;8.482;2024-03-08T08:20:28;7.10;67.50
32506;DHT22;18955;51.224;8.482;2024-03-08T08:22:55;6.90;68.50
32506;DHT22;18955;51.224;8.482;2024-03-08T08:25:21;6.60;69.20
32506;DHT22;18955;51.224;8.482;2024-03-08T08:27:50;7.10;68.00
32506;DHT22;18955;51.224;8.482;2024-03-08T08:30:16;7.10;67.70
32506;DHT22;18955;51.224;8.482;2024-03-08T08:32:43;6.90;68.70
32506;DHT22;18955;51.224;8.482;2024-03-08T08:35:09;6.70;69.20
32506;DHT22;18955;51.224;8.482;2024-03-08T08:37:35;7.30;67.60
32506;DHT22;18955;51.224;8.482;2024-03-08T08:40:04;7.30;67.70
32506;DHT22;18955;51.224;8.482;2024-03-08T08:42:36;7.00;68.90
32506;DHT22;18955;51.224;8.482;2024-03-08T08:45:07;6.80;69.30
32506;DHT22;18955;51.224;8.482;2024-03-08T08:47:36;7.30;67.90
32506;DHT22;18955;51.224;8.482;2024-03-08T08:50:04;7.20;68.00
32506;DHT22;18955;51.224;8.482;2024-03-08T08:52:31;7.00;69.20
32506;DHT22;18955;51.224;8.482;2024-03-08T08:54:58;6.90;69.40
32506;DHT22;18955;51.224;8.482;2024-03-08T08:57:24;7.40;68.00
32506;DHT22;18955;51.224;8.482;2024-03-08T08:59:50;7.20;68.40
32506;DHT22;18955;51.224;8.482;2024-03-08T09:02:17;7.00;69.70
32506;DHT22;18955;51.224;8.482;2024-03-08T09:04:46;7.00;69.80
32506;DHT22;18955;51.224;8.482;2024-03-08T09:07:14;7.40;68.00
32506;DHT22;18955;51.224;8.482;2024-03-08T09:09:42;7.20;68.60
32506;DHT22;18955;51.224;8.482;2024-03-08T09:12:09;7.00;69.70
32506;DHT22;18955;51.224;8.482;2024-03-08T09:14:42;7.10;69.90
32506;DHT22;18955;51.224;8.482;2024-03-08T09:17:08;7.40;68.10
32506;DHT22;18955;51.224;8.482;2024-03-08T09:19:35;7.20;68.80
32506;DHT22;18955;51.224;8.482;2024-03-08T09:22:06;7.00;70.10
32506;DHT22;18955;51.224;8.482;2024-03-08T09:24:32;7.10;69.80
32506;DHT22;18955;51.224;8.482;2024-03-08T09:26:58;7.40;68.30
32506;DHT22;18955;51.224;8.482;2024-03-08T09:29:25;7.20;69.00
32506;DHT22;18955;51.224;8.482;2024-03-08T09:31:51;7.00;70.30
32506;DHT22;18955;51.224;8.482;2024-03-08T09:34:17;7.20;69.60
32506;DHT22;18955;51.224;8.482;2024-03-08T09:36:44;7.50;68.10
32506;DHT22;18955;51.224;8.482;2024-03-08T09:39:10;7.30;68.90
32506;DHT22;18955;51.224;8.482;2024-03-08T09:41:43;7.10;70.10
32506;DHT22;18955;51.224;8.482;2024-03-08T09:44:10;7.20;70.00
32506;DHT22;18955;51.224;8.482;2024-03-08T09:46:36;7.50;68.50
32506;DHT22;18955;51.224;8.482;2024-03-08T09:49:02;7.30;69.20
32506;DHT22;18955;51.224;8.482;2024-03-08T09:51:33;7.10;70.10
32506;DHT22;18955;51.224;8.482;2024-03-08T09:54:02;7.20;70.10
32506;DHT22;18955;51.224;8.482;2024-03-08T09:56:32;7.50;68.60
32506;DHT22;18955;51.224;8.482;2024-03-08T09:59:02;7.40;69.40
32506;DHT22;18955;51.224;8.482;2024-03-08T10:01:37;7.10;70.30
32506;DHT22;18955;51.224;8.482;2024-03-08T10:04:07;7.30;70.10
32506;DHT22;18955;51.224;8.482;2024-03-08T10:06:36;7.60;68.60
32506;DHT22;18955;51.224;8.482;2024-03-08T10:09:02;7.40;69.50
32506;DHT22;18955;51.224;8.482;2024-03-08T10:11:28;7.10;70.90
32506;DHT22;18955;51.224;8.482;2024-03-08T10:13:54;7.40;70.30
32506;DHT22;18955;51.224;8.482;2024-03-08T10:16:21;7.70;68.80
32506;DHT22;18955;51.224;8.482;2024-03-08T10:18:50;7.50;69.60
32506;DHT22;18955;51.224;8.482;2024-03-08T10:21:16;7.30;70.50
32506;DHT22;18955;51.224;8.482;2024-03-08T10:23:43;7.40;70.30
32506;DHT22;18955;51.224;8.482;2024-03-08T10:26:13;7.70;68.60
32506;DHT22;18955;51.224;8.482;2024-03-08T10:28:50;7.60;69.30
32506;DHT22;18955;51.224;8.482;2024-03-08T10:31:17;7.40;70.30
32506;DHT22;18955;51.224;8.482;2024-03-08T10:33:45;7.40;70.40
32506;DHT22;18955;51.224;8.482;2024-03-08T10:36:12;7.90;68.60
32506;DHT22;18955;51.224;8.482;2024-03-08T10:38:40;7.70;69.40
32506;DHT22;18955;51.224;8.482;2024-03-08T10:41:07;7.50;70.30
32506;DHT22;18955;51.224;8.482;2024-03-08T10:46:39;8.10;68.50
32506;DHT22;18955;51.224;8.482;2024-03-08T10:49:14;7.90;69.30
32506;DHT22;18955;51.224;8.482;2024-03-08T10:51:41;7.60;70.30
32506;DHT22;18955;51.224;8.482;2024-03-08T10:54:09;7.60;70.50
32506;DHT22;18955;51.224;8.482;2024-03-08T10:56:36;8.20;68.60
32506;DHT22;18955;51.224;8.482;2024-03-08T10:59:02;8.10;69.10
32506;DHT22;18955;51.224;8.482;2024-03-08T11:01:30;7.90;70.20
32506;DHT22;18955;51.224;8.482;2024-03-08T11:03:57;7.70;70.70
32506;DHT22;18955;51.224;8.482;2024-03-08T11:06:41;8.20;69.20
32506;DHT22;18955;51.224;8.482;2024-03-08T11:09:22;8.20;69.30
32506;DHT22;18955;51.224;8.482;2024-03-08T11:12:23;8.00;70.40
32506;DHT22;18955;51.224;8.482;2024-03-08T11:14:56;7.80;70.90
32506;DHT22;18955;51.224;8.482;2024-03-08T11:19:57;8.30;69.40
32506;DHT22;18955;51.224;8.482;2024-03-08T11:22:29;8.10;70.40
32506;DHT22;18955;51.224;8.482;2024-03-08T11:25:01;7.90;71.00
32506;DHT22;18955;51.224;8.482;2024-03-08T11:27:30;8.50;69.30
32506;DHT22;18955;51.224;8.482;2024-03-08T11:30:07;8.40;69.10
32506;DHT22;18955;51.224;8.482;2024-03-08T11:32:47;8.20;70.30
32506;DHT22;18955;51.224;8.482;2024-03-08T11:35:21;8.00;71.10
32506;DHT22;18955;51.224;8.482;2024-03-08T11:37:49;8.40;69.90
32506;DHT22;18955;51.224;8.482;2024-03-08T11:40:15;8.50;69.10
32506;DHT22;18955;51.224;8.482;2024-03-08T11:42:46;8.30;70.20
32506;DHT22;18955;51.224;8.482;2024-03-08T11:45:18;8.10;71.20
32506;DHT22;18955;51.224;8.482;2024-03-08T11:47:47;8.20;70.80
32506;DHT22;18955;51.224;8.482;2024-03-08T11:50:14;8.60;69.00
32506;DHT22;18955;51.224;8.482;2024-03-08T11:52:41;8.40;69.70
32506;DHT22;18955;51.224;8.482;2024-03-08T11:55:08;8.20;70.50
32506;DHT22;18955;51.224;8.482;2024-03-08T11:57:36;8.10;71.10
32506;DHT22;18955;51.224;8.482;2024-03-08T12:00:02;8.60;69.50
32506;DHT22;18955;51.224;8.482;2024-03-08T12:02:35;8.60;69.30
32506;DHT22;18955;51.224;8.482;2024-03-08T12:05:06;8.30;70.20
32506;DHT22;18955;51.224;8.482;2024-03-08T12:07:35;8.20;71.20
32506;DHT22;18955;51.224;8.482;2024-03-08T12:10:18;8.40;70.50
32506;DHT22;18955;51.224;8.482;2024-03-08T12:12:46;8.70;69.90
32506;DHT22;18955;51.224;8.482;2024-03-08T12:15:15;8.50;70.00
32506;DHT22;18955;51.224;8.482;2024-03-08T12:17:41;8.30;70.90
32506;DHT22;18955;51.224;8.482;2024-03-08T12:20:26;8.30;71.30
32506;DHT22;18955;51.224;8.482;2024-03-08T12:22:53;8.70;69.40
32506;DHT22;18955;51.224;8.482;2024-03-08T12:25:26;8.60;69.80
32506;DHT22;18955;51.224;8.482;2024-03-08T12:27:53;8.40;70.80
32506;DHT22;18955;51.224;8.482;2024-03-08T12:30:23;8.20;71.60
32506;DHT22;18955;51.224;8.482;2024-03-08T12:32:57;8.70;70.10
32506;DHT22;18955;51.224;8.482;2024-03-08T12:35:29;8.70;69.40
32506;DHT22;18955;51.224;8.482;2024-03-08T12:37:56;8.60;70.50
32506;DHT22;18955;51.224;8.482;2024-03-08T12:40:30;8.40;71.40
32506;DHT22;18955;51.224;8.482;2024-03-08T12:43:01;8.40;71.20
32506;DHT22;18955;51.224;8.482;2024-03-08T12:45:28;8.90;69.90
32506;DHT22;18955;51.224;8.482;2024-03-08T12:47:55;8.80;70.10
32506;DHT22;18955;51.224;8.482;2024-03-08T12:50:22;8.60;70.90
32506;DHT22;18955;51.224;8.482;2024-03-08T12:52:48;8.40;71.50
32506;DHT22;18955;51.224;8.482;2024-03-08T12:55:15;8.80;70.20
32506;DHT22;18955;51.224;8.482;2024-03-08T12:57:42;9.00;69.30
32506;DHT22;18955;51.224;8.482;2024-03-08T13:00:09;8.80;70.30
32506;DHT22;18955;51.224;8.482;2024-03-08T13:02:39;8.60;71.10
32506;DHT22;18955;51.224;8.482;2024-03-08T13:05:06;8.60;71.30
32506;DHT22;18955;51.224;8.482;2024-03-08T13:07:35;9.10;69.60
32506;DHT22;18955;51.224;8.482;2024-03-08T13:10:03;9.10;69.80
32506;DHT22;18955;51.224;8.482;2024-03-08T13:12:30;8.90;70.40
32506;DHT22;18955;51.224;8.482;2024-03-08T13:14:56;8.80;71.30
32506;DHT22;18955;51.224;8.482;2024-03-08T13:17:23;8.80;71.30
32506;DHT22;18955;51.224;8.482;2024-03-08T13:19:49;9.30;69.80
32506;DHT22;18955;51.224;8.482;2024-03-08T13:22:18;9.20;69.90
32506;DHT22;18955;51.224;8.482;2024-03-08T13:24:45;9.00;70.50
32506;DHT22;18955;51.224;8.482;2024-03-08T13:27:11;8.90;70.90
32506;DHT22;18955;51.224;8.482;2024-03-08T13:29:48;9.00;70.90
32506;DHT22;18955;51.224;8.482;2024-03-08T13:32:15;9.50;69.80
32506;DHT22;18955;51.224;8.482;2024-03-08T13:34:42;9.40;69.90
32506;DHT22;18955;51.224;8.482;2024-03-08T13:37:09;9.20;70.40
32506;DHT22;18955;51.224;8.482;2024-03-08T13:39:36;9.10;70.90
32506;DHT22;18955;51.224;8.482;2024-03-08T13:42:11;9.40;70.50
32506;DHT22;18955;51.224;8.482;2024-03-08T13:44:45;9.70;69.60
32506;DHT22;18955;51.224;8.482;2024-03-08T13:47:16;9.50;69.90
32506;DHT22;18955;51.224;8.482;2024-03-08T13:49:43;9.40;70.50
32506;DHT22;18955;51.224;8.482;2024-03-08T13:52:10;9.20;71.10
32506;DHT22;18955;51.224;8.482;2024-03-08T13:54:38;9.60;70.40
32506;DHT22;18955;51.224;8.482;2024-03-08T13:57:04;9.80;69.60
32506;DHT22;18955;51.224;8.482;2024-03-08T13:59:31;9.70;70.00
32506;DHT22;18955;51.224;8.482;2024-03-08T14:01:59;9.50;70.60
32506;DHT22;18955;51.224;8.482;2024-03-08T14:04:30;9.40;71.00
32506;DHT22;18955;51.224;8.482;2024-03-08T14:06:56;9.60;70.90
32506;DHT22;18955;51.224;8.482;2024-03-08T14:09:27;10.00;69.80
32506;DHT22;18955;51.224;8.482;2024-03-08T14:11:55;9.90;69.70
32506;DHT22;18955;51.224;8.482;2024-03-08T14:14:21;9.80;70.30
32506;DHT22;18955;51.224;8.482;2024-03-08T14:16:49;9.70;70.80
32506;DHT22;18955;51.224;8.482;2024-03-08T14:19:19;9.70;71.00
32506;DHT22;18955;51.224;8.482;2024-03-08T14:21:46;10.30;69.60
32506;DHT22;18955;51.224;8.482;2024-03-08T14:24:16;10.30;69.40
32506;DHT22;18955;51.224;8.482;2024-03-08T14:26:43;10.10;70.00
32506;DHT22;18955;51.224;8.482;2024-03-08T14:29:09;10.00;70.50
32506;DHT22;18955;51.224;8.482;2024-03-08T14:31:38;10.00;71.00
32506;DHT22;18955;51.224;8.482;2024-03-08T14:34:04;10.30;70.00
32506;DHT22;18955;51.224;8.482;2024-03-08T14:36:31;10.60;69.10
32506;DHT22;18955;51.224;8.482;2024-03-08T14:38:57;10.50;69.30
32506;DHT22;18955;51.224;8.482;2024-03-08T14:41:23;10.40;70.30
32506;DHT22;18955;51.224;8.482;2024-03-08T14:43:50;10.30;70.70
32506;DHT22;18955;51.224;8.482;2024-03-08T14:46:19;10.20;70.90
32506;DHT22;18955;51.224;8.482;2024-03-08T14:48:58;10.70;69.60
32506;DHT22;18955;51.224;8.482;2024-03-08T14:51:24;10.90;68.80
32506;DHT22;18955;51.224;8.482;2024-03-08T14:53:53;10.80;69.30
32506;DHT22;18955;51.224;8.482;2024-03-08T14:56:21;10.60;70.20
32506;DHT22;18955;51.224;8.482;2024-03-08T14:58:47;10.50;70.60
32506;DHT22;18955;51.224;8.482;2024-03-08T15:01:16;10.30;71.10
32506;DHT22;18955;51.224;8.482;2024-03-08T15:03:42;10.70;70.10
32506;DHT22;18955;51.224;8.482;2024-03-08T15:06:11;10.80;70.00
32506;DHT22;18955;51.224;8.482;2024-03-08T15:08:39;10.60;70.20
32506;DHT22;18955;51.224;8.482;2024-03-08T15:11:06;10.40;71.20
32506;DHT22;18955;51.224;8.482;2024-03-08T15:13:33;10.30;72.10
32506;DHT22;18955;51.224;8.482;2024-03-08T15:16:10;10.20;72.50
32506;DHT22;18955;51.224;8.482;2024-03-08T15:18:44;10.60;71.00
32506;DHT22;18955;51.224;8.482;2024-03-08T15:21:14;10.70;70.50
32506;DHT22;18955;51.224;8.482;2024-03-08T15:23:46;10.50;71.20
32506;DHT22;18955;51.224;8.482;2024-03-08T15:26:20;10.30;71.60
32506;DHT22;18955;51.224;8.482;2024-03-08T15:28:46;10.20;72.10
32506;DHT22;18955;51.224;8.482;2024-03-08T15:31:15;10.10;72.60
32506;DHT22;18955;51.224;8.482;2024-03-08T15:33:42;10.60;70.80
32506;DHT22;18955;51.224;8.482;2024-03-08T15:36:11;10.60;70.70
32506;DHT22;18955;51.224;8.482;2024-03-08T15:38:41;10.50;71.50
32506;DHT22;18955;51.224;8.482;2024-03-08T15:41:07;10.30;72.30
32506;DHT22;18955;51.224;8.482;2024-03-08T15:43:39;10.20;73.50
32506;DHT22;18955;51.224;8.482;2024-03-08T15:46:06;10.10;72.70
32506;DHT22;18955;51.224;8.482;2024-03-08T15:48:33;10.60;71.20
32506;DHT22;18955;51.224;8.482;2024-03-08T15:51:04;10.60;71.20
32506;DHT22;18955;51.224;8.482;2024-03-08T15:53:36;10.40;72.00
32506;DHT22;18955;51.224;8.482;2024-03-08T15:56:04;10.20;72.80